Time;durP1;ratioP1;P1;durP2;ratioP2;P2;SDS_P1;SDS_P2;PMS_P1;PMS_P2;Temp;Humidity;BMP_temperature;BMP_pressure;BME280_temperature;BME280_humidity;BME280_pressure;Samples;Min_cycle;Max_cycle;Signal;HPM_P1;HPM_P2
2024/03/29 00:02:25;;;;;;;30.98;22.83;;;;;;;30.32;90.63;101029.38;5022776;28;66463;-34
2024/03/29 00:04:54;;;;;;;23.35;20.55;;;;;;;30.36;89.07;101052.22;5034976;28;70001;-35
2024/03/29 00:07:23;;;;;;;29.40;20.58;;;;;;;30.37;90.45;101043.06;5029893;28;66585;-34
2024/03/29 00:09:51;;;;;;;23.80;20.20;;;;;;;30.33;89.91;101052.66;5030983;28;70361;-33
2024/03/29 00:12:20;;;;;;;30.85;21.30;;;;;;;30.43;91.95;101063.88;5031209;28;66623;-34
2024/03/29 00:14:51;;;;;;;23.23;18.33;;;;;;;30.45;89.64;101072.59;5022229;28;70094;-33
2024/03/29 00:17:19;;;;;;;20.88;17.42;;;;;;;30.48;90.30;101073.03;5008064;28;65978;-33
2024/03/29 00:19:48;;;;;;;20.98;17.17;;;;;;;30.49;90.62;101079.25;5037376;28;70288;-34
2024/03/29 00:22:17;;;;;;;24.48;17.25;;;;;;;30.54;89.83;101087.59;5023414;28;66144;-33
2024/03/29 00:24:45;;;;;;;18.33;16.20;;;;;;;30.56;90.24;101090.88;5022783;28;70282;-33
2024/03/29 00:27:14;;;;;;;18.35;16.27;;;;;;;30.57;88.95;101092.56;5020996;28;66624;-33
2024/03/29 00:29:46;;;;;;;16.95;15.38;;;;;;;30.63;89.19;101102.53;5024520;28;70418;-33
2024/03/29 00:32:14;;;;;;;17.25;15.48;;;;;;;30.62;90.20;101103.59;5008044;28;66674;-34
2024/03/29 00:34:44;;;;;;;15.77;14.27;;;;;;;30.66;89.72;101112.94;5031477;28;70702;-34
2024/03/29 00:37:13;;;;;;;16.13;14.60;;;;;;;30.70;88.53;101114.19;5020263;28;66614;-33
2024/03/29 00:39:42;;;;;;;16.92;15.25;;;;;;;30.61;89.53;101092.97;5005088;28;70126;-33
2024/03/29 00:42:15;;;;;;;16.58;14.88;;;;;;;30.75;89.71;101116.25;5021266;28;66760;-33
2024/03/29 00:44:44;;;;;;;15.38;13.82;;;;;;;30.73;89.53;101121.88;5035460;28;69960;-33
2024/03/29 00:47:13;;;;;;;15.40;14.13;;;;;;;30.63;88.53;101097.13;5021703;28;65749;-34
2024/03/29 00:49:42;;;;;;;15.35;13.85;;;;;;;30.80;88.79;101130.00;5022420;28;70183;-34
2024/03/29 00:52:10;;;;;;;13.95;12.82;;;;;;;30.87;87.70;101119.13;5046675;28;65301;-34
2024/03/29 00:54:39;;;;;;;15.82;14.23;;;;;;;30.89;87.94;101119.75;5029293;28;70238;-33
2024/03/29 00:57:13;;;;;;;15.40;13.90;;;;;;;30.96;87.09;101123.28;5005003;28;66758;-33
2024/03/29 00:59:43;;;;;;;16.23;14.80;;;;;;;31.01;87.39;101131.59;4961812;28;69721;-33
2024/03/29 01:02:12;;;;;;;16.38;14.88;;;;;;;31.03;87.19;101139.50;5011437;28;65813;-34
2024/03/29 01:04:41;;;;;;;15.77;14.48;;;;;;;30.93;87.48;101112.88;5009922;28;69575;-33
2024/03/29 01:07:10;;;;;;;19.77;15.15;;;;;;;31.09;87.00;101127.78;4977510;28;65639;-33
2024/03/29 01:09:38;;;;;;;14.70;13.43;;;;;;;31.09;87.05;101134.06;5034760;28;69191;-34
2024/03/29 01:12:07;;;;;;;15.55;14.13;;;;;;;31.11;86.66;101137.38;5020027;28;66186;-33
2024/03/29 01:14:36;;;;;;;13.95;12.88;;;;;;;31.12;86.38;101138.19;5009936;28;70851;-33
2024/03/29 01:17:06;;;;;;;15.00;13.23;;;;;;;31.13;86.43;101146.13;5033853;28;66201;-33
2024/03/29 01:19:35;;;;;;;14.65;13.27;;;;;;;31.15;86.13;101144.03;5020365;28;69625;-34
2024/03/29 01:22:04;;;;;;;14.52;12.30;;;;;;;31.14;86.56;101131.53;4995056;28;66757;-33
2024/03/29 01:24:33;;;;;;;14.32;13.07;;;;;;;31.21;85.80;101136.09;5021897;28;70532;-34
2024/03/29 01:27:06;;;;;;;13.00;11.82;;;;;;;31.21;86.00;101136.94;5018753;28;66855;-34
2024/03/29 01:29:35;;;;;;;12.88;11.57;;;;;;;31.24;86.11;101141.09;5018348;28;70252;-34
2024/03/29 01:32:04;;;;;;;14.00;12.52;;;;;;;31.23;86.22;101142.09;5021244;28;66512;-33
2024/03/29 01:34:33;;;;;;;12.80;11.88;;;;;;;31.28;85.80;101142.28;5027985;28;69933;-33
2024/03/29 01:37:01;;;;;;;14.15;12.50;;;;;;;31.32;85.61;101143.53;5036987;28;66131;-33
2024/03/29 01:39:31;;;;;;;13.40;12.00;;;;;;;31.32;85.20;101138.94;5018517;28;70737;-33
2024/03/29 01:42:00;;;;;;;16.20;12.45;;;;;;;31.36;85.30;101150.22;5026454;28;66399;-33
2024/03/29 01:44:29;;;;;;;13.88;12.63;;;;;;;31.34;85.35;101147.69;4993595;28;69466;-34
2024/03/29 01:46:58;;;;;;;12.60;11.75;;;;;;;31.41;85.28;101153.09;5024781;28;65539;-34
2024/03/29 01:49:27;;;;;;;13.68;12.48;;;;;;;31.42;84.96;101153.94;5029635;28;69895;-33
2024/03/29 01:51:56;;;;;;;13.35;12.15;;;;;;;31.44;84.96;101147.25;5020516;28;66169;-34
2024/03/29 01:54:25;;;;;;;11.75;10.80;;;;;;;31.45;84.98;101146.19;5021814;28;70664;-35
2024/03/29 01:56:55;;;;;;;12.85;11.82;;;;;;;31.50;84.72;101157.22;5019064;28;66880;-33
2024/03/29 01:59:30;;;;;;;12.80;11.63;;;;;;;31.51;84.75;101153.47;5031199;28;70678;-33
2024/03/29 02:02:00;;;;;;;13.32;11.60;;;;;;;31.56;84.71;101153.63;5041433;28;66884;-30
2024/03/29 02:04:29;;;;;;;13.60;12.40;;;;;;;31.58;84.67;101159.66;5053177;28;70288;-31
2024/03/29 02:06:58;;;;;;;12.60;11.57;;;;;;;31.59;84.41;101150.50;5009322;28;66369;-31
2024/03/29 02:09:27;;;;;;;13.18;11.95;;;;;;;31.56;84.50;101150.91;5037637;28;70614;-31
2024/03/29 02:11:56;;;;;;;12.13;11.23;;;;;;;31.65;84.29;101164.19;5031461;28;66580;-31
2024/03/29 02:14:25;;;;;;;13.77;12.32;;;;;;;31.66;84.53;101171.31;5008191;28;69996;-30
2024/03/29 02:16:54;;;;;;;13.35;11.88;;;;;;;31.68;84.25;101174.59;5026527;28;65326;-33
2024/03/29 02:19:23;;;;;;;12.63;11.48;;;;;;;31.71;84.00;101179.63;5018894;28;69304;-34
2024/03/29 02:21:56;;;;;;;12.50;11.35;;;;;;;31.58;84.31;101153.41;5030939;28;66067;-32
2024/03/29 02:24:25;;;;;;;12.50;11.40;;;;;;;31.79;83.99;101171.22;5000916;28;70019;-31
2024/03/29 02:26:56;;;;;;;12.02;10.93;;;;;;;31.81;83.81;101169.09;5025543;28;66177;-31
2024/03/29 02:29:25;;;;;;;12.23;11.33;;;;;;;31.81;83.79;101164.50;5000553;28;69243;-30
2024/03/29 02:31:54;;;;;;;11.88;10.82;;;;;;;31.87;83.61;101157.38;5025432;28;66049;-31
2024/03/29 02:34:23;;;;;;;12.55;11.40;;;;;;;31.91;83.50;101149.63;5050808;28;70045;-31
2024/03/29 02:36:52;;;;;;;11.93;11.00;;;;;;;31.93;83.16;101167.38;5027035;28;66350;-31
2024/03/29 02:39:21;;;;;;;12.02;10.98;;;;;;;31.96;83.37;101158.81;5022437;28;69271;-30
2024/03/29 02:41:49;;;;;;;11.65;10.80;;;;;;;31.99;83.46;101160.25;5032654;28;66417;-30
2024/03/29 02:44:18;;;;;;;11.70;10.75;;;;;;;31.99;83.40;101163.78;5023937;28;69838;-30
2024/03/29 02:46:47;;;;;;;12.00;11.00;;;;;;;32.03;83.12;101177.72;5025406;28;66288;-36
2024/03/29 02:49:16;;;;;;;11.75;10.60;;;;;;;32.08;83.22;101164.34;5041791;28;70187;-33
2024/03/29 02:51:45;;;;;;;11.20;10.32;;;;;;;32.11;83.20;101165.78;5049635;28;66408;-31
2024/03/29 02:54:14;;;;;;;11.25;10.45;;;;;;;32.13;82.99;101160.97;5027409;28;70380;-31
2024/03/29 02:56:42;;;;;;;11.70;10.73;;;;;;;32.13;82.59;101156.38;5014607;28;65728;-31
2024/03/29 02:59:11;;;;;;;11.20;10.20;;;;;;;32.18;82.74;101169.25;5033646;28;70760;-31
2024/03/29 03:01:41;;;;;;;11.60;10.75;;;;;;;32.24;82.49;101174.63;5036608;28;66746;-34
2024/03/29 03:04:09;;;;;;;11.40;10.50;;;;;;;32.27;82.59;101178.78;5051232;28;69818;-31
2024/03/29 03:06:40;;;;;;;11.45;10.05;;;;;;;32.31;82.42;101180.00;5030355;28;65836;-32
2024/03/29 03:11:58;;;;;;;10.90;10.02;;;;;;;32.36;82.40;101172.00;5036882;28;65724;-31
2024/03/29 03:14:28;;;;;;;10.95;10.15;;;;;;;32.40;82.22;101169.66;5032412;28;70592;-33
2024/03/29 03:16:57;;;;;;;10.82;10.10;;;;;;;32.40;81.96;101165.09;5008950;28;66102;-31
2024/03/29 03:19:26;;;;;;;10.45;9.73;;;;;;;32.47;82.22;101160.44;5026539;28;69151;-31
2024/03/29 03:21:55;;;;;;;11.18;10.23;;;;;;;32.51;82.35;101168.13;5033008;28;65667;-31
2024/03/29 03:24:24;;;;;;;11.60;10.60;;;;;;;32.50;82.01;101151.03;5028707;28;69504;-32
2024/03/29 03:26:52;;;;;;;10.73;10.00;;;;;;;32.57;81.84;101156.38;5018251;28;66296;-31
2024/03/29 03:29:21;;;;;;;10.40;9.70;;;;;;;32.56;81.81;101160.16;5031881;28;70493;-31
2024/03/29 03:31:50;;;;;;;10.60;9.90;;;;;;;32.61;81.71;101160.31;5019589;28;66858;-32
2024/03/29 03:34:19;;;;;;;10.88;9.88;;;;;;;32.52;81.76;101134.53;5032313;28;69981;-31
2024/03/29 03:36:47;;;;;;;10.18;9.48;;;;;;;32.67;81.74;101156.69;5053023;28;66687;-34
2024/03/29 03:39:16;;;;;;;10.35;9.43;;;;;;;32.71;81.67;101149.75;5043274;28;70202;-32
2024/03/29 03:41:45;;;;;;;10.13;9.35;;;;;;;32.74;81.55;101152.03;5020042;28;66079;-34
2024/03/29 03:44:14;;;;;;;11.02;9.75;;;;;;;32.77;81.26;101146.13;5018736;28;70376;-32
2024/03/29 03:46:43;;;;;;;10.63;9.93;;;;;;;32.81;81.66;101147.31;5003468;28;66879;-32
2024/03/29 03:49:12;;;;;;;10.95;10.05;;;;;;;32.84;81.15;101152.28;5021912;28;69669;-32
2024/03/29 03:51:41;;;;;;;10.02;9.25;;;;;;;32.87;81.28;101142.88;5019542;28;66848;-32
2024/03/29 03:54:10;;;;;;;10.43;9.43;;;;;;;32.90;80.92;101145.13;5023104;28;70148;-32
2024/03/29 03:56:39;;;;;;;10.02;9.20;;;;;;;32.91;81.24;101144.91;5052402;28;65075;-32
2024/03/29 03:59:07;;;;;;;11.05;10.05;;;;;;;32.94;81.10;101139.00;5032643;28;69798;-32
2024/03/29 04:01:36;;;;;;;9.98;9.27;;;;;;;32.98;81.12;101130.41;5030909;28;66572;-31
2024/03/29 04:04:05;;;;;;;11.38;10.00;;;;;;;33.02;80.92;101131.66;5041679;28;69701;-33
2024/03/29 04:06:35;;;;;;;12.15;10.35;;;;;;;33.01;80.79;101124.53;5025593;28;66176;-34
2024/03/29 04:09:05;;;;;;;10.38;9.77;;;;;;;33.09;80.67;101133.19;5036618;28;71331;-31
2024/03/29 04:11:34;;;;;;;10.25;9.55;;;;;;;33.12;80.66;101121.03;5048658;28;66493;-34
2024/03/29 04:14:03;;;;;;;10.38;9.57;;;;;;;33.08;80.61;101114.41;5029553;28;69277;-32
2024/03/29 04:16:33;;;;;;;10.10;9.13;;;;;;;33.16;80.41;101122.25;5028916;28;66489;-32
2024/03/29 04:19:02;;;;;;;10.00;9.27;;;;;;;33.20;80.38;101128.06;5021497;28;70994;-33
2024/03/29 04:21:31;;;;;;;10.23;9.52;;;;;;;33.23;80.48;101116.72;5020481;28;65716;-33
2024/03/29 04:24:02;;;;;;;10.30;9.60;;;;;;;33.25;80.66;101107.28;5018011;28;70969;-35
2024/03/29 04:26:32;;;;;;;10.15;9.18;;;;;;;33.26;80.44;101106.19;5030778;28;66291;-34
2024/03/29 04:29:01;;;;;;;10.10;9.30;;;;;;;33.29;80.41;101110.34;5046547;28;69572;-31
2024/03/29 04:31:30;;;;;;;9.68;8.95;;;;;;;33.33;80.59;101112.38;5032288;28;66676;-32
2024/03/29 04:33:59;;;;;;;9.32;8.52;;;;;;;33.34;80.23;101103.16;5047310;28;69784;-33
2024/03/29 04:36:29;;;;;;;9.70;9.02;;;;;;;33.38;80.16;101104.38;5025857;28;65535;-35
2024/03/29 04:38:58;;;;;;;9.70;9.00;;;;;;;33.41;80.16;101099.53;5037997;28;69847;-35
2024/03/29 04:41:27;;;;;;;9.70;9.10;;;;;;;33.38;79.97;101087.22;5042938;28;66149;-32
2024/03/29 04:43:56;;;;;;;9.75;9.00;;;;;;;33.44;80.18;101085.47;5019979;28;70382;-32
2024/03/29 04:46:28;;;;;;;9.65;8.98;;;;;;;33.47;80.19;101085.00;5047572;28;65835;-35
2024/03/29 04:48:57;;;;;;;;;;;;;;;33.45;79.88;101073.50;5036065;28;70042;-34
2024/03/29 04:51:26;;;;;;;9.73;8.93;;;;;;;33.54;79.93;101074.84;5022407;28;66269;-32
2024/03/29 04:53:55;;;;;;;9.38;8.77;;;;;;;33.55;79.78;101071.09;5042871;28;70228;-31
2024/03/29 04:56:24;;;;;;;9.77;9.18;;;;;;;33.57;79.73;101058.06;5023482;28;66023;-33
2024/03/29 04:58:53;;;;;;;9.68;9.02;;;;;;;33.61;79.58;101048.38;5036720;28;69831;-32
2024/03/29 05:01:22;;;;;;;9.68;8.98;;;;;;;33.61;79.76;101058.44;5025492;28;66672;-32
2024/03/29 05:03:52;;;;;;;9.02;8.43;;;;;;;33.63;79.65;101056.28;5049997;28;70181;-32
2024/03/29 05:06:22;;;;;;;9.38;8.77;;;;;;;33.65;79.61;101043.28;5018077;28;66181;-32
2024/03/29 05:08:51;;;;;;;9.50;8.90;;;;;;;33.68;79.84;101049.09;5019055;28;70175;-32
2024/03/29 05:11:20;;;;;;;9.25;8.48;;;;;;;33.71;79.53;101048.63;5020339;28;66671;-31
2024/03/29 05:13:49;;;;;;;8.77;8.18;;;;;;;33.73;79.19;101046.50;5039210;28;70208;-35
2024/03/29 05:16:18;;;;;;;8.45;7.93;;;;;;;33.69;79.60;101037.16;5022064;28;66105;-31
2024/03/29 05:18:48;;;;;;;9.10;8.40;;;;;;;33.76;79.50;101024.25;5024106;28;70485;-33
2024/03/29 05:21:19;;;;;;;8.80;8.30;;;;;;;33.81;79.30;101020.81;5047308;28;65323;-32
2024/03/29 05:23:48;;;;;;;8.98;8.48;;;;;;;33.79;79.23;101010.19;5025895;28;70627;-32
2024/03/29 05:26:17;;;;;;;9.35;8.50;;;;;;;33.72;79.02;100995.88;5006723;28;66258;-33
2024/03/29 05:28:48;;;;;;;8.90;8.30;;;;;;;33.80;79.02;100984.63;5024355;28;69417;-35
2024/03/29 05:31:18;;;;;;;9.02;8.43;;;;;;;33.79;78.95;100984.84;5030487;28;65862;-32
2024/03/29 05:33:47;;;;;;;9.35;8.63;;;;;;;33.86;79.44;100995.63;5013459;28;69751;-32
2024/03/29 05:36:18;;;;;;;9.18;8.48;;;;;;;33.87;79.08;100995.38;5033797;28;65931;-33
2024/03/29 05:38:47;;;;;;;8.90;8.43;;;;;;;33.91;78.82;100982.16;5023917;28;70055;-35
2024/03/29 05:41:16;;;;;;;9.93;9.13;;;;;;;33.95;78.70;100973.25;5050678;28;66934;-31
2024/03/29 05:43:46;;;;;;;9.35;8.70;;;;;;;33.94;78.83;100960.72;5051648;28;70460;-35
2024/03/29 05:46:17;;;;;;;8.68;8.05;;;;;;;33.81;78.89;100931.84;5037103;28;66515;-32
2024/03/29 05:48:46;;;;;;;;;;;;;;;33.92;78.76;100951.97;5030491;28;70943;-32
2024/03/29 05:51:15;;;;;;;8.63;8.02;;;;;;;34.03;78.73;100953.00;5022595;28;66493;-31
2024/03/29 05:53:44;;;;;;;8.65;8.15;;;;;;;34.03;78.78;100942.13;5029894;28;70103;-33
2024/03/29 05:56:13;;;;;;;8.98;8.18;;;;;;;34.07;78.78;100943.31;5024045;28;66899;-32
2024/03/29 05:58:43;;;;;;;9.05;8.45;;;;;;;34.04;78.99;100927.44;5041002;28;68610;-34
2024/03/29 06:01:11;;;;;;;8.63;8.07;;;;;;;33.94;78.47;100894.59;5042087;28;65932;-32
2024/03/29 06:03:41;;;;;;;8.43;7.93;;;;;;;34.12;78.42;100924.38;5037184;28;70689;-32
2024/03/29 06:06:17;;;;;;;8.55;8.10;;;;;;;34.14;78.59;100911.34;5033416;28;65657;-31
2024/03/29 06:08:46;;;;;;;8.65;8.05;;;;;;;34.17;78.25;100913.59;5019052;28;69585;-31
2024/03/29 06:11:15;;;;;;;9.07;8.43;;;;;;;34.26;78.51;100914.84;5018972;28;66020;-32
2024/03/29 06:19:16;;;;;;;9.70;9.18;;;;;;;34.31;78.20;100889.63;5003970;28;70537;-34
2024/03/29 06:21:45;;;;;;;9.18;8.48;;;;;;;34.35;78.33;100892.66;5022758;28;66511;-32
2024/03/29 06:24:14;;;;;;;9.20;8.23;;;;;;;34.38;78.20;100890.31;5040630;28;70526;-33
2024/03/29 06:26:43;;;;;;;9.55;8.68;;;;;;;34.41;78.12;100880.81;5029207;28;65994;-32
2024/03/29 06:29:13;;;;;;;8.43;7.93;;;;;;;34.44;78.46;100877.59;5021636;28;70152;-33
2024/03/29 06:31:42;;;;;;;9.23;8.63;;;;;;;34.41;77.75;100862.56;4991921;28;66755;-32
2024/03/29 06:34:11;;;;;;;8.80;8.10;;;;;;;34.50;77.91;100865.72;5023702;28;70355;-31
2024/03/29 06:36:40;;;;;;;8.68;8.07;;;;;;;34.54;77.89;100866.88;5028477;28;66792;-31
2024/03/29 06:39:10;;;;;;;9.30;8.65;;;;;;;34.57;77.80;100854.69;5024494;28;70292;-34
2024/03/29 06:41:39;;;;;;;8.68;8.18;;;;;;;34.61;77.45;100853.97;5023839;28;66065;-33
2024/03/29 06:44:08;;;;;;;8.50;8.02;;;;;;;34.64;77.31;100858.91;5004245;28;70541;-36
2024/03/29 06:46:38;;;;;;;8.68;8.07;;;;;;;34.69;77.53;100848.09;5004704;28;66600;-33
2024/03/29 06:49:07;;;;;;;8.48;8.00;;;;;;;34.73;77.27;100844.88;5039185;28;70121;-32
2024/03/29 06:51:37;;;;;;;8.32;7.80;;;;;;;34.75;77.76;100835.41;5024739;28;65813;-32
2024/03/29 06:54:06;;;;;;;8.77;8.20;;;;;;;34.76;77.01;100825.31;5002334;28;68822;-33
2024/03/29 06:56:35;;;;;;;8.30;7.80;;;;;;;34.85;77.10;100826.53;5022504;28;66803;-35
2024/03/29 06:59:04;;;;;;;8.90;8.30;;;;;;;34.88;76.71;100824.16;5036455;28;69747;-31
2024/03/29 07:01:33;;;;;;;8.70;8.20;;;;;;;34.94;76.70;100827.78;5034771;28;66580;-31
2024/03/29 07:04:02;;;;;;;8.63;8.07;;;;;;;34.97;77.09;100821.84;5023587;28;69230;-33
2024/03/29 07:06:32;;;;;;;8.35;7.85;;;;;;;35.02;76.52;100816.47;4993391;28;66610;-32
2024/03/29 07:09:03;;;;;;;8.35;7.85;;;;;;;35.06;76.56;100809.47;5006011;28;70454;-32
2024/03/29 07:11:34;;;;;;;8.38;7.72;;;;;;;35.10;76.13;100817.94;5015259;28;66342;-33
2024/03/29 07:14:07;;;;;;;8.05;7.63;;;;;;;35.08;76.56;100796.41;5019468;28;70160;-33
2024/03/29 07:16:39;;;;;;;8.52;7.95;;;;;;;35.23;76.37;100803.16;5030417;28;43146;-32
2024/03/29 07:19:08;;;;;;;8.18;7.43;;;;;;;35.25;76.40;100801.00;5019025;28;70025;-33
2024/03/29 07:21:37;;;;;;;8.02;7.43;;;;;;;35.33;75.78;100795.09;5029930;28;66146;-35
2024/03/29 07:24:07;;;;;;;7.95;7.40;;;;;;;35.38;75.40;100797.06;5034355;28;69823;-32
2024/03/29 07:26:37;;;;;;;8.25;7.70;;;;;;;35.43;75.95;100787.03;5035824;28;67972;-35
2024/03/29 07:29:07;;;;;;;7.85;7.35;;;;;;;35.48;75.37;100789.81;5037832;28;69978;-33
2024/03/29 07:31:36;;;;;;;9.55;7.35;;;;;;;35.53;75.39;100786.34;5022724;28;65528;-33
2024/03/29 07:34:05;;;;;;;7.70;7.20;;;;;;;35.53;75.67;100770.78;5022148;28;70044;-33
2024/03/29 07:36:35;;;;;;;7.80;7.30;;;;;;;35.63;75.60;100780.19;5030576;28;66464;-32
2024/03/29 07:39:04;;;;;;;7.57;7.07;;;;;;;35.68;75.17;100774.81;5027735;28;70348;-32
2024/03/29 07:41:34;;;;;;;8.13;7.68;;;;;;;35.69;75.53;100776.44;5022102;28;65538;-32
2024/03/29 07:44:08;;;;;;;7.80;7.30;;;;;;;35.76;74.69;100775.16;5023889;28;70053;-32
2024/03/29 07:46:40;;;;;;;8.25;7.65;;;;;;;35.84;75.28;100782.09;5026344;28;65665;-32
2024/03/29 07:49:09;;;;;;;7.95;7.45;;;;;;;35.86;75.12;100785.38;5027766;28;70396;-31
2024/03/29 07:51:39;;;;;;;7.40;6.90;;;;;;;35.87;74.80;100770.66;5007705;28;66267;-34
2024/03/29 07:54:09;;;;;;;7.40;7.00;;;;;;;35.98;74.57;100788.78;5023985;28;70544;-33
2024/03/29 07:56:39;;;;;;;7.45;6.95;;;;;;;35.99;74.81;100771.31;4997420;28;66342;-31
2024/03/29 07:59:08;;;;;;;8.13;7.43;;;;;;;36.09;74.62;100780.72;5016700;28;69260;-35
2024/03/29 08:01:38;;;;;;;7.05;6.65;;;;;;;36.12;74.45;100777.47;5042828;28;66652;-31
2024/03/29 08:04:07;;;;;;;7.30;6.90;;;;;;;36.17;73.62;100774.81;5020243;28;70078;-34
2024/03/29 08:06:38;;;;;;;7.70;7.00;;;;;;;35.97;74.28;100738.00;5017781;28;66375;-32
2024/03/29 08:09:07;;;;;;;7.57;7.07;;;;;;;36.24;73.56;100775.41;5023621;28;69658;-31
2024/03/29 08:11:36;;;;;;;7.40;6.90;;;;;;;36.28;73.29;100753.88;5024021;28;66737;-33
2024/03/29 08:14:06;;;;;;;7.40;7.00;;;;;;;36.34;73.18;100753.63;5019466;28;70183;-31
2024/03/29 08:16:37;;;;;;;7.20;6.80;;;;;;;36.24;73.82;100737.97;5022059;28;66125;-34
2024/03/29 08:19:06;;;;;;;7.97;7.28;;;;;;;36.44;73.21;100761.94;5038234;28;69575;-32
2024/03/29 08:21:36;;;;;;;8.38;7.53;;;;;;;36.50;73.35;100756.47;5019141;28;66777;-32
2024/03/29 08:24:06;;;;;;;7.07;6.68;;;;;;;36.52;73.02;100754.31;5051404;28;70802;-32
2024/03/29 08:26:38;;;;;;;7.87;7.27;;;;;;;36.47;73.19;100745.00;5047094;28;66318;-33
2024/03/29 08:29:06;;;;;;;7.40;7.00;;;;;;;36.54;73.27;100749.44;5035326;28;70134;-32
2024/03/29 08:31:39;;;;;;;7.63;7.13;;;;;;;36.57;73.10;100746.19;5036065;28;66406;-38
2024/03/29 08:34:13;;;;;;;7.18;6.68;;;;;;;36.65;72.63;100742.97;5030344;28;70036;-32
2024/03/29 08:36:44;;;;;;;7.70;7.22;;;;;;;36.66;73.27;100745.44;5030536;28;66472;-32
2024/03/29 08:39:13;;;;;;;6.72;6.32;;;;;;;36.68;72.45;100731.50;5028818;28;69158;-31
2024/03/29 08:41:44;;;;;;;7.40;6.90;;;;;;;36.67;73.00;100729.88;5036569;28;66647;-36
2024/03/29 08:44:17;;;;;;;7.35;6.78;;;;;;;36.71;73.01;100730.97;5024673;28;68944;-32
2024/03/29 08:46:47;;;;;;;7.32;6.78;;;;;;;36.70;72.59;100729.34;5044250;28;66754;-35
2024/03/29 08:49:16;;;;;;;7.75;6.70;;;;;;;36.73;72.14;100728.81;5019110;28;69968;-32
2024/03/29 08:51:46;;;;;;;7.20;6.75;;;;;;;36.74;72.42;100727.72;5012246;28;66215;-31
2024/03/29 08:54:15;;;;;;;7.72;7.10;;;;;;;36.80;72.40;100740.31;5016522;28;70347;-32
2024/03/29 08:56:44;;;;;;;7.45;6.95;;;;;;;36.83;72.76;100734.34;5006528;28;66331;-34
2024/03/29 08:59:15;;;;;;;6.90;6.45;;;;;;;36.85;72.14;100732.16;5021693;28;69413;-32
2024/03/29 09:01:51;;;;;;;7.45;7.05;;;;;;;36.89;71.93;100744.22;5009196;28;66397;-32
2024/03/29 09:04:20;;;;;;;7.55;7.05;;;;;;;36.91;72.64;100746.66;5019332;28;70593;-31
2024/03/29 09:06:49;;;;;;;7.55;7.15;;;;;;;36.93;72.33;100744.50;5028064;28;67503;-32
2024/03/29 09:09:19;;;;;;;7.28;6.68;;;;;;;36.96;72.23;100748.63;5054981;28;70572;-32
2024/03/29 09:11:48;;;;;;;7.40;6.90;;;;;;;36.98;72.22;100746.44;5046381;28;65523;-33
2024/03/29 09:14:19;;;;;;;7.55;7.15;;;;;;;37.02;71.92;100744.84;5040607;28;69040;-32
2024/03/29 09:16:49;;;;;;;7.25;6.75;;;;;;;37.02;72.36;100747.56;5032228;28;66007;-32
2024/03/29 09:19:18;;;;;;;6.90;6.50;;;;;;;37.07;72.11;100755.81;5033740;28;69139;-33
2024/03/29 09:21:47;;;;;;;8.07;7.38;;;;;;;37.07;71.95;100755.81;5028434;28;67200;-37
2024/03/29 09:24:19;;;;;;;9.00;7.97;;;;;;;37.02;72.47;100753.03;5019454;28;69665;-33
2024/03/29 09:26:50;;;;;;;9.30;8.50;;;;;;;36.68;72.81;100706.91;5012817;28;65864;-32
2024/03/29 09:29:22;;;;;;;9.07;8.20;;;;;;;36.96;72.89;100765.00;5027636;28;70195;-33
2024/03/29 09:31:54;;;;;;;9.25;8.45;;;;;;;36.92;72.58;100764.72;5018096;28;66691;-32
2024/03/29 09:34:24;;;;;;;12.25;9.10;;;;;;;36.92;72.55;100767.47;5000697;28;70116;-33
2024/03/29 09:37:02;;;;;;;9.60;8.70;;;;;;;36.93;72.74;100771.00;5018808;28;65814;-34
2024/03/29 09:46:03;;;;;;;10.13;9.32;;;;;;;36.84;72.96;100773.44;5027568;28;70504;-36
2024/03/29 09:48:36;;;;;;;10.25;8.90;;;;;;;36.85;73.35;100781.34;5006379;28;66431;-32
2024/03/29 09:51:09;;;;;;;12.95;9.60;;;;;;;36.77;72.73;100770.91;5034131;28;70047;-32
2024/03/29 09:53:40;;;;;;;9.93;8.95;;;;;;;36.81;73.18;100763.84;5000462;28;66374;-32
2024/03/29 09:56:11;;;;;;;10.45;8.85;;;;;;;36.72;72.96;100770.06;5020380;28;69673;-32
2024/03/29 09:58:42;;;;;;;9.33;8.63;;;;;;;36.76;72.68;100777.47;5000540;28;65910;-31
2024/03/29 10:01:11;;;;;;;9.30;8.52;;;;;;;36.77;72.66;100779.09;5033460;28;70103;-32
2024/03/29 10:03:43;;;;;;;9.18;8.30;;;;;;;36.55;72.94;100742.88;5035431;28;66679;-32
2024/03/29 10:06:17;;;;;;;9.57;8.57;;;;;;;36.65;73.18;100770.28;4984068;28;69376;-32
2024/03/29 10:08:48;;;;;;;8.82;8.23;;;;;;;36.59;72.76;100760.41;5003260;28;65435;-34
2024/03/29 10:11:19;;;;;;;9.13;8.40;;;;;;;36.61;72.38;100774.63;5020927;28;69966;-32
2024/03/29 10:13:49;;;;;;;;;;;;;;;36.52;72.62;100776.97;5030891;28;65198;-32
2024/03/29 10:16:23;;;;;;;8.77;8.02;;;;;;;36.59;72.34;100779.53;5025223;28;69108;-33
2024/03/29 10:18:53;;;;;;;10.38;9.13;;;;;;;36.55;73.02;100783.88;5014179;28;66113;-34
2024/03/29 10:21:29;;;;;;;8.73;8.02;;;;;;;36.50;72.41;100783.78;5014837;28;70343;-33
2024/03/29 10:23:58;;;;;;;12.77;9.52;;;;;;;36.43;72.94;100794.94;5023886;28;66654;-33
2024/03/29 10:26:27;;;;;;;14.55;9.20;;;;;;;36.42;73.13;100802.34;5027810;28;70073;-33
2024/03/29 10:28:57;;;;;;;12.90;9.45;;;;;;;36.34;73.05;100797.34;5031652;28;65867;-33
2024/03/29 10:31:26;;;;;;;9.35;8.65;;;;;;;36.37;72.97;100796.81;5035494;28;70430;-32
2024/03/29 10:33:55;;;;;;;14.50;8.68;;;;;;;36.27;72.80;100796.72;5040900;28;66528;-32
2024/03/29 10:36:26;;;;;;;10.80;9.88;;;;;;;36.33;72.77;100811.25;5038749;28;69556;-32
2024/03/29 10:38:55;;;;;;;17.63;9.75;;;;;;;36.23;73.44;100803.78;5023398;28;66947;-32
2024/03/29 10:41:25;;;;;;;10.85;9.85;;;;;;;36.24;73.16;100813.63;5017233;28;70429;-33
2024/03/29 10:43:56;;;;;;;12.05;9.73;;;;;;;36.20;73.14;100804.31;5055522;28;65382;-32
2024/03/29 10:46:27;;;;;;;11.48;9.60;;;;;;;36.23;73.97;100822.91;5012714;28;70716;-32
2024/03/29 10:48:57;;;;;;;11.25;10.13;;;;;;;36.21;74.07;100825.88;5038518;28;66466;-33
2024/03/29 10:51:28;;;;;;;11.20;9.98;;;;;;;36.19;73.76;100813.56;5032219;28;70060;-33
2024/03/29 10:54:01;;;;;;;12.00;10.55;;;;;;;35.97;74.58;100789.06;5028296;28;65100;-35
2024/03/29 10:56:31;;;;;;;11.25;10.45;;;;;;;36.16;74.25;100820.41;5037483;28;70291;-34
2024/03/29 10:59:22;;;;;;;10.25;9.45;;;;;;;35.89;74.60;100784.88;5022407;28;66702;-33
2024/03/29 11:01:59;;;;;;;11.70;10.27;;;;;;;35.98;74.81;100805.16;5024124;28;70305;-33
2024/03/29 11:04:34;;;;;;;11.48;10.50;;;;;;;35.81;75.40;100788.06;5023614;28;66018;-33
2024/03/29 11:07:12;;;;;;;10.05;9.25;;;;;;;35.80;75.17;100791.84;5034926;28;69635;-32
2024/03/29 11:09:42;;;;;;;13.32;11.10;;;;;;;35.93;75.28;100820.66;5029947;28;66233;-32
2024/03/29 11:12:13;;;;;;;15.13;13.63;;;;;;;35.92;75.05;100830.75;5033046;28;70036;-32
2024/03/29 11:14:48;;;;;;;22.10;13.55;;;;;;;35.80;76.01;100825.44;5023013;28;65863;-33
2024/03/29 11:17:18;;;;;;;16.98;13.50;;;;;;;35.91;75.68;100831.84;5033120;28;69945;-34
2024/03/29 11:19:49;;;;;;;20.08;13.93;;;;;;;35.89;75.30;100841.38;5007562;28;66312;-34
2024/03/29 11:22:19;;;;;;;23.25;14.48;;;;;;;35.84;75.61;100844.84;5032679;28;69602;-35
2024/03/29 11:24:51;;;;;;;23.42;14.85;;;;;;;35.69;75.34;100817.38;5025177;28;66688;-33
2024/03/29 11:27:24;;;;;;;27.45;14.52;;;;;;;35.75;76.53;100838.22;5010476;28;69972;-32
2024/03/29 11:29:54;;;;;;;20.07;13.43;;;;;;;35.77;75.83;100838.75;5017408;28;66153;-31
2024/03/29 11:32:38;;;;;;;16.67;12.98;;;;;;;35.68;77.23;100851.22;5025456;28;70119;-32
2024/03/29 11:35:16;;;;;;;18.33;12.68;;;;;;;35.68;76.53;100856.66;5039988;28;66646;-33
2024/03/29 11:37:46;;;;;;;13.90;12.25;;;;;;;35.65;76.61;100870.81;5025580;28;69725;-33
2024/03/29 11:40:15;;;;;;;17.00;11.40;;;;;;;35.57;76.88;100864.72;5031182;28;66653;-33
2024/03/29 11:42:54;;;;;;;13.68;11.98;;;;;;;35.38;76.49;100833.31;5041815;28;69830;-33
2024/03/29 11:45:30;;;;;;;15.65;11.65;;;;;;;35.48;77.23;100860.75;5042664;28;66217;-35
2024/03/29 11:48:05;;;;;;;16.58;11.63;;;;;;;35.33;76.41;100841.47;5026306;28;70635;-34